Camiri, Bolivia
Current Conditions -  °F | °C
As of 7:00 PM on Friday 28 Nov 2014 (Local Time) from SLCA Reporting Station
Overcast Overcast  
Wind Chill: 84°   Ceiling: 20000
Heat Index: 87°   Visibility: 6mi
Dew Point: 68°   Wind: 0mph
Humidity: 58%   Direction: NA
Pressure: 29.85"   Gusts: NA
Location:  20.05°S, 63.52°W
Report Text: SLCA 282300Z 00000KT 9999 SCT036 OVC200 29/20 Q1011
Loading
Personal Weather Stations






























Interactive Weather Map New forecast layout! Learn more

10-Day Weather Forecast

Advertisements
Track Severe Weather on mobile